Time;durP1;ratioP1;P1;durP2;ratioP2;P2;SDS_P1;SDS_P2;PMS_P1;PMS_P2;Temp;Humidity;BMP_temperature;BMP_pressure;BME280_temperature;BME280_humidity;BME280_pressure;Samples;Min_cycle;Max_cycle;Signal;HPM_P1;HPM_P2
2023/11/07 00:01:55;;;;;;;6.13;3.40;;;;;;;;;;5115219;27;20468;-66
2023/11/07 00:04:22;;;;;;;7.60;3.77;;;;;;;;;;5111953;27;20489;-66
2023/11/07 00:06:48;;;;;;;5.33;3.00;;;;;;;;;;5115558;27;20619;-66
2023/11/07 00:09:16;;;;;;;5.23;3.20;;;;;;;;;;5119119;27;20480;-67
2023/11/07 00:11:42;;;;;;;3.63;3.07;;;;;;;;;;5109461;28;20455;-67
2023/11/07 00:14:09;;;;;;;5.30;2.60;;;;;;;;;;5105779;28;20489;-66
2023/11/07 00:16:36;;;;;;;5.93;3.70;;;;;;;;;;5118014;28;20485;-66
2023/11/07 00:19:05;;;;;;;10.63;3.10;;;;;;;;;;5116335;28;20497;-66
2023/11/07 00:21:31;;;;;;;4.93;2.90;;;;;;;;;;5114834;27;20454;-66
2023/11/07 00:23:58;;;;;;;6.67;3.37;;;;;;;;;;5104979;28;20550;-66
2023/11/07 00:26:25;;;;;;;3.13;2.57;;;;;;;;;;5109564;28;20442;-65
2023/11/07 00:28:51;;;;;;;7.80;2.53;;;;;;;;;;5110116;28;20474;-66
2023/11/07 00:31:18;;;;;;;10.10;3.53;;;;;;;;;;5131232;27;20484;-66
2023/11/07 00:33:45;;;;;;;7.63;3.13;;;;;;;;;;5124060;27;20491;-66
2023/11/07 00:36:12;;;;;;;5.37;2.27;;;;;;;;;;5134995;27;20456;-66
2023/11/07 00:38:39;;;;;;;3.00;2.70;;;;;;;;;;5140611;27;20509;-66
2023/11/07 00:41:06;;;;;;;10.23;3.70;;;;;;;;;;5134690;27;20454;-66
2023/11/07 00:43:33;;;;;;;5.27;4.00;;;;;;;;;;5146440;27;21037;-66
2023/11/07 00:45:59;;;;;;;6.50;3.20;;;;;;;;;;5137590;27;20950;-66
2023/11/07 00:48:25;;;;;;;5.47;3.53;;;;;;;;;;5140155;27;20454;-66
2023/11/07 00:50:53;;;;;;;6.37;3.93;;;;;;;;;;5124252;27;20450;-66
2023/11/07 00:53:20;;;;;;;7.53;3.50;;;;;;;;;;5131700;27;20502;-66
2023/11/07 00:55:46;;;;;;;6.63;2.97;;;;;;;;;;5135459;27;20953;-65
2023/11/07 00:58:14;;;;;;;10.77;4.10;;;;;;;;;;5140032;27;20481;-66
2023/11/07 01:00:41;;;;;;;6.30;3.40;;;;;;;;;;5139323;27;20451;-65
2023/11/07 01:03:08;;;;;;;7.83;3.87;;;;;;;;;;5141880;27;20876;-66
2023/11/07 01:05:35;;;;;;;6.17;3.50;;;;;;;;;;5132613;27;21086;-66
2023/11/07 01:08:03;;;;;;;12.90;3.60;;;;;;;;;;5128322;27;20865;-66
2023/11/07 01:10:29;;;;;;;6.97;3.57;;;;;;;;;;5134109;27;20449;-66
2023/11/07 01:12:56;;;;;;;4.23;3.10;;;;;;;;;;5133096;27;20533;-67
2023/11/07 01:15:23;;;;;;;3.80;3.03;;;;;;;;;;5126612;27;20469;-66
2023/11/07 01:17:49;;;;;;;5.03;3.40;;;;;;;;;;5148386;27;20512;-66
2023/11/07 01:20:16;;;;;;;3.57;3.27;;;;;;;;;;5130607;27;20477;-66
2023/11/07 01:22:44;;;;;;;5.83;3.83;;;;;;;;;;5129230;27;20485;-66
2023/11/07 01:25:12;;;;;;;4.47;3.13;;;;;;;;;;5135092;27;20461;-67
2023/11/07 01:27:38;;;;;;;8.80;4.23;;;;;;;;;;5130541;27;20483;-65
2023/11/07 01:30:05;;;;;;;8.23;3.70;;;;;;;;;;5132520;27;21212;-66
2023/11/07 01:32:32;;;;;;;4.87;4.37;;;;;;;;;;5131277;27;20454;-66
2023/11/07 01:35:00;;;;;;;5.43;3.67;;;;;;;;;;5141323;27;20889;-66
2023/11/07 01:37:27;;;;;;;8.67;4.20;;;;;;;;;;5123438;27;20481;-66
2023/11/07 01:39:52;;;;;;;8.70;3.70;;;;;;;;;;5135869;27;20477;-66
2023/11/07 01:42:20;;;;;;;10.63;4.87;;;;;;;;;;5125645;27;20541;-66
2023/11/07 01:44:49;;;;;;;9.13;3.90;;;;;;;;;;5131997;27;20209;-67
2023/11/07 01:47:15;;;;;;;4.37;3.23;;;;;;;;;;5137903;27;20470;-66
2023/11/07 01:49:42;;;;;;;5.93;4.53;;;;;;;;;;5128446;27;20501;-66
2023/11/07 01:52:08;;;;;;;6.93;3.80;;;;;;;;;;5137516;27;20494;-66
2023/11/07 01:54:35;;;;;;;6.90;3.27;;;;;;;;;;5136542;27;20529;-65
2023/11/07 01:57:02;;;;;;;6.43;3.97;;;;;;;;;;5132862;27;20456;-66
2023/11/07 01:59:30;;;;;;;8.33;3.33;;;;;;;;;;5128143;27;20508;-66
2023/11/07 02:01:59;;;;;;;4.27;3.80;;;;;;;;;;5144602;27;20449;-65
2023/11/07 02:04:26;;;;;;;3.70;3.40;;;;;;;;;;5136461;27;20453;-66
2023/11/07 02:06:52;;;;;;;6.40;3.50;;;;;;;;;;5141779;27;20483;-66
2023/11/07 02:09:20;;;;;;;4.73;3.60;;;;;;;;;;5129047;27;20481;-66
2023/11/07 02:11:47;;;;;;;5.43;3.60;;;;;;;;;;5134643;27;20453;-66
2023/11/07 02:14:25;;;;;;;7.23;3.60;;;;;;;;;;5137078;27;20488;-66
2023/11/07 02:16:53;;;;;;;5.53;4.10;;;;;;;;;;5130983;27;20468;-66
2023/11/07 02:19:20;;;;;;;7.30;3.50;;;;;;;;;;5133639;27;20562;-66
2023/11/07 02:21:46;;;;;;;5.53;3.93;;;;;;;;;;5134328;27;20444;-66
2023/11/07 02:24:14;;;;;;;7.17;4.33;;;;;;;;;;5135798;27;20946;-66
2023/11/07 02:26:41;;;;;;;5.53;4.20;;;;;;;;;;5142326;27;20477;-66
2023/11/07 02:29:07;;;;;;;5.33;3.70;;;;;;;;;;5137034;27;20991;-65
2023/11/07 02:31:33;;;;;;;6.80;3.80;;;;;;;;;;5148403;27;20497;-66
2023/11/07 02:34:05;;;;;;;5.33;4.77;;;;;;;;;;5144932;27;20475;-66
2023/11/07 02:36:32;;;;;;;5.50;4.30;;;;;;;;;;5141355;27;20485;-66
2023/11/07 02:38:58;;;;;;;8.47;3.83;;;;;;;;;;5137810;27;20488;-66
2023/11/07 02:41:26;;;;;;;5.37;3.40;;;;;;;;;;5133324;27;20493;-66
2023/11/07 02:43:52;;;;;;;7.10;3.63;;;;;;;;;;5140539;27;20521;-66
2023/11/07 02:46:19;;;;;;;4.97;3.17;;;;;;;;;;5144915;27;20476;-65
2023/11/07 02:48:45;;;;;;;4.33;2.97;;;;;;;;;;5126325;27;20461;-66
2023/11/07 02:51:15;;;;;;;5.57;3.90;;;;;;;;;;5124915;27;20479;-66
2023/11/07 02:53:42;;;;;;;5.33;3.47;;;;;;;;;;5140928;27;20488;-66
2023/11/07 02:56:08;;;;;;;4.83;3.60;;;;;;;;;;5148157;27;20673;-66
2023/11/07 02:58:36;;;;;;;8.50;3.57;;;;;;;;;;5132220;27;20512;-65
2023/11/07 03:01:03;;;;;;;6.60;3.33;;;;;;;;;;5139598;27;20505;-66
2023/11/07 03:03:29;;;;;;;3.80;3.23;;;;;;;;;;5132540;27;20456;-65
2023/11/07 03:05:55;;;;;;;3.47;2.47;;;;;;;;;;5139044;27;20506;-66
2023/11/07 03:08:22;;;;;;;10.03;3.20;;;;;;;;;;5143939;27;20479;-66
2023/11/07 03:10:48;;;;;;;3.17;2.80;;;;;;;;;;5143719;27;20452;-67
2023/11/07 03:13:14;;;;;;;4.97;3.47;;;;;;;;;;5135679;27;20468;-66
2023/11/07 03:15:44;;;;;;;3.30;2.70;;;;;;;;;;5145736;27;20461;-66
2023/11/07 03:18:10;;;;;;;8.10;4.43;;;;;;;;;;5141825;27;20472;-66
2023/11/07 03:20:37;;;;;;;3.30;3.00;;;;;;;;;;5141763;27;20475;-65
2023/11/07 03:23:03;;;;;;;4.30;2.33;;;;;;;;;;5130841;27;20452;-66
2023/11/07 03:25:29;;;;;;;3.03;2.80;;;;;;;;;;5134231;27;20522;-65
2023/11/07 03:27:56;;;;;;;5.60;3.80;;;;;;;;;;5138687;27;20481;-66
2023/11/07 03:30:22;;;;;;;5.73;2.77;;;;;;;;;;5133670;27;20517;-66
2023/11/07 03:32:50;;;;;;;3.20;2.90;;;;;;;;;;5133296;27;20492;-66
2023/11/07 03:35:17;;;;;;;4.43;2.93;;;;;;;;;;5127902;27;20454;-66
2023/11/07 03:37:44;;;;;;;4.40;3.20;;;;;;;;;;5136021;27;20458;-66
2023/11/07 03:40:12;;;;;;;9.20;3.60;;;;;;;;;;5132358;27;20573;-66
2023/11/07 03:42:38;;;;;;;4.87;3.10;;;;;;;;;;5127370;27;20450;-67
2023/11/07 03:45:05;;;;;;;4.73;3.17;;;;;;;;;;5141205;27;20485;-67
2023/11/07 03:47:32;;;;;;;6.63;3.20;;;;;;;;;;5144247;27;20481;-66
2023/11/07 03:49:59;;;;;;;4.40;2.80;;;;;;;;;;5137048;27;20525;-68
2023/11/07 03:52:26;;;;;;;7.03;2.87;;;;;;;;;;5140119;27;20517;-66
2023/11/07 03:54:52;;;;;;;3.43;2.80;;;;;;;;;;5140557;27;20485;-66
2023/11/07 03:57:18;;;;;;;7.30;3.00;;;;;;;;;;5134964;27;20485;-66
2023/11/07 03:59:45;;;;;;;2.77;2.50;;;;;;;;;;5134015;27;20940;-66
2023/11/07 04:02:12;;;;;;;3.43;2.33;;;;;;;;;;5144603;27;20474;-67
2023/11/07 04:04:39;;;;;;;3.70;2.33;;;;;;;;;;5134294;27;20453;-66
2023/11/07 04:07:06;;;;;;;2.77;2.10;;;;;;;;;;5142536;27;20446;-67
2023/11/07 04:09:33;;;;;;;2.80;2.60;;;;;;;;;;5127231;27;20477;-66
2023/11/07 04:12:00;;;;;;;3.70;2.23;;;;;;;;;;5140017;27;20448;-66
2023/11/07 04:14:27;;;;;;;4.63;2.40;;;;;;;;;;5135137;27;20454;-66
2023/11/07 04:16:53;;;;;;;5.83;2.70;;;;;;;;;;5134695;27;20481;-66
2023/11/07 04:19:19;;;;;;;7.20;2.30;;;;;;;;;;5133034;27;20533;-66
2023/11/07 04:21:46;;;;;;;2.70;2.30;;;;;;;;;;5136661;27;20774;-66
2023/11/07 04:24:15;;;;;;;3.30;2.40;;;;;;;;;;5140984;27;20484;-67
2023/11/07 04:26:41;;;;;;;2.60;2.37;;;;;;;;;;5137079;27;20457;-66
2023/11/07 04:29:08;;;;;;;3.67;2.17;;;;;;;;;;5137998;27;20490;-66
2023/11/07 04:31:37;;;;;;;3.13;2.07;;;;;;;;;;5146043;27;20545;-66
2023/11/07 04:34:04;;;;;;;4.47;2.60;;;;;;;;;;5136727;27;20456;-66
2023/11/07 04:36:30;;;;;;;2.40;2.20;;;;;;;;;;5134594;27;20485;-67
2023/11/07 04:38:57;;;;;;;4.80;2.53;;;;;;;;;;5139821;27;20500;-66
2023/11/07 04:41:24;;;;;;;1.63;1.53;;;;;;;;;;5141865;27;20544;-66
2023/11/07 04:43:51;;;;;;;3.70;2.10;;;;;;;;;;5131509;27;20453;-66
2023/11/07 04:46:17;;;;;;;4.23;2.83;;;;;;;;;;5129635;27;20469;-66
2023/11/07 04:48:44;;;;;;;3.47;2.00;;;;;;;;;;5135314;27;20452;-66
2023/11/07 04:51:11;;;;;;;2.53;2.33;;;;;;;;;;5135311;27;21282;-65
2023/11/07 04:53:37;;;;;;;2.83;1.90;;;;;;;;;;5144474;27;20458;-66
2023/11/07 04:56:04;;;;;;;1.80;1.67;;;;;;;;;;5141874;27;20449;-67
2023/11/07 04:58:32;;;;;;;2.27;1.80;;;;;;;;;;5124357;27;20549;-67
2023/11/07 05:00:58;;;;;;;3.07;2.00;;;;;;;;;;5127467;27;20492;-67
2023/11/07 05:03:25;;;;;;;3.40;2.33;;;;;;;;;;5118214;27;20503;-66
2023/11/07 05:05:53;;;;;;;2.70;2.00;;;;;;;;;;5122339;27;20454;-66
2023/11/07 05:08:20;;;;;;;2.43;1.90;;;;;;;;;;5118724;27;20446;-66
2023/11/07 05:10:46;;;;;;;2.43;1.60;;;;;;;;;;5126407;27;20514;-66
2023/11/07 05:13:14;;;;;;;1.63;1.53;;;;;;;;;;5135951;27;20449;-66
2023/11/07 05:15:43;;;;;;;2.37;2.13;;;;;;;;;;5125211;27;20461;-66
2023/11/07 05:18:10;;;;;;;1.80;1.70;;;;;;;;;;5136716;27;20454;-65
2023/11/07 05:20:38;;;;;;;2.10;1.90;;;;;;;;;;5135537;27;20495;-66
2023/11/07 05:23:06;;;;;;;3.60;2.47;;;;;;;;;;5136685;27;21303;-66
2023/11/07 05:25:33;;;;;;;3.33;1.90;;;;;;;;;;5134398;27;20498;-66
2023/11/07 05:28:00;;;;;;;3.77;2.00;;;;;;;;;;5135628;27;20445;-67
2023/11/07 05:30:27;;;;;;;4.30;2.10;;;;;;;;;;5134875;27;20488;-66
2023/11/07 05:32:54;;;;;;;2.73;2.00;;;;;;;;;;5135143;27;20469;-67
2023/11/07 05:35:21;;;;;;;1.70;1.60;;;;;;;;;;5129355;27;20474;-67
2023/11/07 05:37:47;;;;;;;1.83;1.73;;;;;;;;;;5133002;27;20485;-66
2023/11/07 05:40:15;;;;;;;2.13;1.93;;;;;;;;;;5137170;28;20535;-66
2023/11/07 05:42:42;;;;;;;4.27;1.90;;;;;;;;;;5124561;28;20449;-66
2023/11/07 05:45:09;;;;;;;2.30;2.07;;;;;;;;;;5137859;27;20518;-66
2023/11/07 05:47:36;;;;;;;2.00;1.90;;;;;;;;;;5128242;28;20518;-67
2023/11/07 05:50:04;;;;;;;5.30;1.70;;;;;;;;;;5138117;27;20464;-67
2023/11/07 05:52:31;;;;;;;2.70;2.20;;;;;;;;;;5133012;27;20450;-67
2023/11/07 05:54:57;;;;;;;2.47;2.27;;;;;;;;;;5136392;27;20474;-66
2023/11/07 05:57:24;;;;;;;3.10;2.83;;;;;;;;;;5128755;27;20513;-67
2023/11/07 05:59:50;;;;;;;2.10;1.80;;;;;;;;;;5130134;28;20512;-67
2023/11/07 06:02:16;;;;;;;3.23;2.40;;;;;;;;;;5133937;27;20456;-66
2023/11/07 06:04:43;;;;;;;2.27;1.87;;;;;;;;;;5133808;27;20502;-66
2023/11/07 06:07:11;;;;;;;7.13;2.00;;;;;;;;;;5135241;28;20453;-71
2023/11/07 06:09:37;;;;;;;2.50;1.90;;;;;;;;;;5134471;27;20518;-81
2023/11/07 06:12:04;;;;;;;2.40;2.00;;;;;;;;;;5135158;27;20505;-76
2023/11/07 06:14:31;;;;;;;3.33;2.37;;;;;;;;;;5140067;27;20462;-75
2023/11/07 06:16:57;;;;;;;8.20;2.00;;;;;;;;;;5141610;27;20497;-75
2023/11/07 06:19:24;;;;;;;2.43;1.90;;;;;;;;;;5131310;27;20517;-75
2023/11/07 06:21:50;;;;;;;3.30;2.33;;;;;;;;;;5127743;27;20477;-76
2023/11/07 06:24:18;;;;;;;2.90;2.60;;;;;;;;;;5138373;27;20492;-75
2023/11/07 06:26:46;;;;;;;3.27;2.40;;;;;;;;;;5141270;27;20454;-75
2023/11/07 06:29:12;;;;;;;3.70;2.43;;;;;;;;;;5135141;27;20474;-76
2023/11/07 06:31:38;;;;;;;2.80;2.03;;;;;;;;;;5122975;27;20546;-78
2023/11/07 06:34:06;;;;;;;5.10;2.67;;;;;;;;;;5119454;27;20474;-75
2023/11/07 06:36:32;;;;;;;8.20;3.03;;;;;;;;;;5128257;27;20449;-77
2023/11/07 06:38:59;;;;;;;4.30;2.97;;;;;;;;;;5126645;27;20445;-76
2023/11/07 06:41:28;;;;;;;5.70;2.37;;;;;;;;;;5123178;27;20486;-76
2023/11/07 06:43:54;;;;;;;2.83;2.30;;;;;;;;;;5131718;27;20447;-78
2023/11/07 06:46:21;;;;;;;2.77;2.47;;;;;;;;;;5120226;27;20908;-77
2023/11/07 06:48:48;;;;;;;4.07;2.80;;;;;;;;;;5112762;28;20484;-77
2023/11/07 06:51:15;;;;;;;3.33;3.00;;;;;;;;;;5110448;28;20484;-73
2023/11/07 06:53:42;;;;;;;4.07;2.63;;;;;;;;;;5103649;28;20451;-76
2023/11/07 06:56:08;;;;;;;2.30;2.20;;;;;;;;;;5118238;28;20510;-73
2023/11/07 06:58:36;;;;;;;3.00;2.27;;;;;;;;;;5113998;28;20458;-75
2023/11/07 07:01:03;;;;;;;8.80;3.00;;;;;;;;;;5116018;28;20972;-74
2023/11/07 07:03:29;;;;;;;3.47;3.17;;;;;;;;;;5111794;28;20443;-73
2023/11/07 07:05:56;;;;;;;5.30;3.40;;;;;;;;;;5108883;28;20479;-71
2023/11/07 07:08:23;;;;;;;3.10;2.80;;;;;;;;;;5105458;28;20462;-76
2023/11/07 07:10:49;;;;;;;3.60;2.60;;;;;;;;;;5120655;28;20529;-77
2023/11/07 07:13:16;;;;;;;3.77;2.50;;;;;;;;;;5111682;28;20461;-73
2023/11/07 07:15:44;;;;;;;3.40;2.90;;;;;;;;;;5109873;28;20465;-75
2023/11/07 07:18:14;;;;;;;2.90;2.70;;;;;;;;;;5107203;28;20486;-75
2023/11/07 07:20:41;;;;;;;5.13;2.40;;;;;;;;;;5100543;28;20483;-77
2023/11/07 07:23:08;;;;;;;2.37;2.17;;;;;;;;;;5119944;28;20466;-77
2023/11/07 07:25:36;;;;;;;3.40;2.07;;;;;;;;;;5114770;28;20895;-79
2023/11/07 07:28:04;;;;;;;3.07;2.47;;;;;;;;;;5118793;28;20450;-80
2023/11/07 07:30:32;;;;;;;3.00;2.37;;;;;;;;;;5109217;28;20484;-79
2023/11/07 07:33:00;;;;;;;2.97;2.17;;;;;;;;;;5130962;27;20467;-78
2023/11/07 07:35:32;;;;;;;4.20;2.53;;;;;;;;;;5136242;27;20468;-77
2023/11/07 07:38:02;;;;;;;3.03;2.73;;;;;;;;;;5137285;27;20449;-73
2023/11/07 07:40:29;;;;;;;4.53;2.93;;;;;;;;;;5144639;27;20510;-74
2023/11/07 07:42:58;;;;;;;3.70;3.40;;;;;;;;;;5132796;27;20449;-75
2023/11/07 07:45:24;;;;;;;3.43;3.13;;;;;;;;;;5133935;27;20455;-64
2023/11/07 07:47:51;;;;;;;3.60;3.33;;;;;;;;;;5136408;27;20437;-69
2023/11/07 07:50:19;;;;;;;4.07;3.53;;;;;;;;;;5140172;27;20442;-69
2023/11/07 07:52:47;;;;;;;3.40;3.10;;;;;;;;;;5125356;27;20514;-68
2023/11/07 07:55:14;;;;;;;3.60;3.30;;;;;;;;;;5127925;27;20454;-69
2023/11/07 07:57:41;;;;;;;4.27;3.67;;;;;;;;;;5135613;27;20456;-68
2023/11/07 08:00:12;;;;;;;3.83;3.37;;;;;;;;;;5137335;27;20483;-68
2023/11/07 08:02:38;;;;;;;3.10;2.80;;;;;;;;;;5133757;27;20441;-68
2023/11/07 08:05:06;;;;;;;3.43;3.13;;;;;;;;;;5133887;27;20454;-71
2023/11/07 08:07:35;;;;;;;3.67;3.37;;;;;;;;;;5132160;27;20453;-75
2023/11/07 08:10:01;;;;;;;4.30;3.13;;;;;;;;;;5128359;27;20513;-73
2023/11/07 08:12:28;;;;;;;4.33;3.20;;;;;;;;;;5131462;27;20442;-69
2023/11/07 08:14:54;;;;;;;3.30;3.00;;;;;;;;;;5133535;27;20471;-71
2023/11/07 08:17:20;;;;;;;4.70;3.20;;;;;;;;;;5139094;27;20505;-74
2023/11/07 08:19:47;;;;;;;3.30;3.00;;;;;;;;;;5136394;27;20545;-71
2023/11/07 08:22:16;;;;;;;4.80;2.83;;;;;;;;;;5139337;27;20457;-72
2023/11/07 08:24:46;;;;;;;4.47;3.20;;;;;;;;;;5127102;27;20847;-71
2023/11/07 08:27:13;;;;;;;3.53;2.60;;;;;;;;;;5126777;27;20479;-74
2023/11/07 08:29:39;;;;;;;3.60;3.30;;;;;;;;;;5139915;27;20577;-73
2023/11/07 08:32:07;;;;;;;3.40;2.77;;;;;;;;;;5138392;27;20484;-71
2023/11/07 08:34:33;;;;;;;3.57;3.20;;;;;;;;;;5126134;27;20533;-70
2023/11/07 08:37:00;;;;;;;3.10;2.80;;;;;;;;;;5127142;27;20446;-71
2023/11/07 08:39:28;;;;;;;5.60;3.30;;;;;;;;;;5128385;27;20441;-77
2023/11/07 08:41:56;;;;;;;3.10;2.90;;;;;;;;;;5136774;27;20482;-73
2023/11/07 08:44:22;;;;;;;3.30;3.10;;;;;;;;;;5126176;27;20499;-72
2023/11/07 08:46:49;;;;;;;3.10;2.90;;;;;;;;;;5125203;27;20470;-72
2023/11/07 08:49:16;;;;;;;3.20;2.90;;;;;;;;;;5136237;27;20734;-73
2023/11/07 08:51:43;;;;;;;2.90;2.70;;;;;;;;;;5127214;27;20881;-68
2023/11/07 08:54:09;;;;;;;3.77;3.43;;;;;;;;;;5139243;27;20456;-71
2023/11/07 08:56:36;;;;;;;4.00;2.70;;;;;;;;;;5134063;27;20840;-72
2023/11/07 08:59:04;;;;;;;3.23;3.00;;;;;;;;;;5128245;27;20472;-75
2023/11/07 09:01:30;;;;;;;3.37;3.10;;;;;;;;;;5132122;27;20520;-76
2023/11/07 09:03:57;;;;;;;4.03;3.73;;;;;;;;;;5133200;27;20472;-69
2023/11/07 09:06:23;;;;;;;4.47;4.03;;;;;;;;;;5120609;27;20450;-73
2023/11/07 09:08:50;;;;;;;3.33;3.13;;;;;;;;;;5128238;27;20529;-74
2023/11/07 09:11:16;;;;;;;3.80;3.60;;;;;;;;;;5123588;27;20509;-72
2023/11/07 09:13:42;;;;;;;4.90;3.40;;;;;;;;;;5132903;27;20473;-76
2023/11/07 09:16:10;;;;;;;4.20;3.80;;;;;;;;;;5139448;27;20449;-74
2023/11/07 09:18:37;;;;;;;3.97;3.67;;;;;;;;;;5139919;27;20505;-72
2023/11/07 09:21:04;;;;;;;4.27;3.97;;;;;;;;;;5120087;28;21115;-71
2023/11/07 09:23:30;;;;;;;3.47;3.27;;;;;;;;;;5122491;27;20822;-73
2023/11/07 09:25:57;;;;;;;3.70;3.50;;;;;;;;;;5126354;27;20456;-71
2023/11/07 09:28:25;;;;;;;5.83;3.57;;;;;;;;;;5138747;27;20449;-69
2023/11/07 09:30:52;;;;;;;4.03;3.73;;;;;;;;;;5134858;27;20469;-72
2023/11/07 09:33:20;;;;;;;3.50;3.30;;;;;;;;;;5133034;27;20938;-74
2023/11/07 09:35:46;;;;;;;3.33;3.13;;;;;;;;;;5137235;27;20453;-72
2023/11/07 09:38:13;;;;;;;8.60;3.47;;;;;;;;;;5139852;27;20501;-76
2023/11/07 09:40:40;;;;;;;3.40;3.10;;;;;;;;;;5131209;28;20471;-70
2023/11/07 09:43:06;;;;;;;3.73;3.30;;;;;;;;;;5119979;28;20442;-71
2023/11/07 09:45:35;;;;;;;3.60;3.30;;;;;;;;;;5133860;28;20470;-72
2023/11/07 09:48:01;;;;;;;3.00;2.80;;;;;;;;;;5139463;28;20502;-71
2023/11/07 09:50:33;;;;;;;2.80;2.70;;;;;;;;;;5140255;28;20501;-73
2023/11/07 09:53:00;;;;;;;2.70;2.60;;;;;;;;;;5129558;28;20462;-73
2023/11/07 09:55:28;;;;;;;2.57;2.47;;;;;;;;;;5128134;28;20488;-73
2023/11/07 09:57:57;;;;;;;3.73;3.20;;;;;;;;;;5125474;28;21000;-71
2023/11/07 10:00:25;;;;;;;3.37;2.60;;;;;;;;;;5137540;28;20453;-71
2023/11/07 10:02:52;;;;;;;4.03;2.60;;;;;;;;;;5129886;28;20471;-72
2023/11/07 10:05:20;;;;;;;3.27;3.07;;;;;;;;;;5126998;28;20939;-73
2023/11/07 10:07:51;;;;;;;5.03;2.60;;;;;;;;;;5121785;28;20894;-72
2023/11/07 10:10:18;;;;;;;3.43;2.60;;;;;;;;;;5122122;28;20449;-72
2023/11/07 10:12:45;;;;;;;3.10;2.90;;;;;;;;;;5131399;28;20496;-72
2023/11/07 10:15:14;;;;;;;2.80;2.70;;;;;;;;;;5136076;28;20826;-75
2023/11/07 10:17:43;;;;;;;2.80;2.60;;;;;;;;;;5132624;28;20481;-71
2023/11/07 10:20:11;;;;;;;2.80;2.60;;;;;;;;;;5123472;28;20502;-69
2023/11/07 10:22:44;;;;;;;2.50;2.40;;;;;;;;;;5126152;28;20481;-69
2023/11/07 10:25:25;;;;;;;3.00;2.80;;;;;;;;;;5138837;28;20949;-71
2023/11/07 10:27:55;;;;;;;2.37;2.17;;;;;;;;;;5138942;28;20446;-71
2023/11/07 10:30:22;;;;;;;2.50;2.30;;;;;;;;;;5135047;28;20477;-71
2023/11/07 10:32:53;;;;;;;2.60;2.50;;;;;;;;;;5135259;28;20808;-70
2023/11/07 10:35:21;;;;;;;2.50;2.30;;;;;;;;;;5136933;28;20865;-71
2023/11/07 10:37:47;;;;;;;2.60;2.50;;;;;;;;;;5126948;28;20446;-70
2023/11/07 10:40:17;;;;;;;2.87;2.67;;;;;;;;;;5130340;28;20443;-70
2023/11/07 10:42:45;;;;;;;2.40;2.30;;;;;;;;;;5121190;28;20485;-70
2023/11/07 10:45:14;;;;;;;2.80;2.60;;;;;;;;;;5134942;28;20469;-70
2023/11/07 10:47:40;;;;;;;2.77;2.20;;;;;;;;;;5121683;28;20802;-74
2023/11/07 10:50:08;;;;;;;2.70;2.50;;;;;;;;;;5125596;28;20450;-74
2023/11/07 10:52:35;;;;;;;2.43;2.23;;;;;;;;;;5137920;28;20920;-74
2023/11/07 10:55:04;;;;;;;2.40;2.20;;;;;;;;;;5119561;28;20525;-69
2023/11/07 10:57:33;;;;;;;3.13;2.53;;;;;;;;;;5126521;27;20454;-74
2023/11/07 11:00:05;;;;;;;2.73;2.53;;;;;;;;;;5136793;27;20580;-72
2023/11/07 11:02:33;;;;;;;5.40;2.50;;;;;;;;;;5142385;27;20529;-74
2023/11/07 11:05:02;;;;;;;2.33;2.13;;;;;;;;;;5138963;27;20475;-69
2023/11/07 11:07:28;;;;;;;2.53;2.40;;;;;;;;;;5142364;27;20453;-70
2023/11/07 11:09:56;;;;;;;2.80;2.70;;;;;;;;;;5141760;27;20464;-70
2023/11/07 11:12:23;;;;;;;3.07;2.90;;;;;;;;;;5133134;27;20505;-70
2023/11/07 11:14:50;;;;;;;2.83;2.70;;;;;;;;;;5133306;27;20454;-70
2023/11/07 11:17:20;;;;;;;3.30;3.10;;;;;;;;;;5127168;27;20570;-70
2023/11/07 11:19:54;;;;;;;2.67;2.47;;;;;;;;;;5139183;27;20514;-73
2023/11/07 11:22:25;;;;;;;3.00;2.80;;;;;;;;;;5140267;27;20520;-76
2023/11/07 11:24:58;;;;;;;2.80;2.70;;;;;;;;;;5125443;27;20453;-72
2023/11/07 11:27:30;;;;;;;3.00;2.80;;;;;;;;;;5139194;27;21221;-71
2023/11/07 11:29:56;;;;;;;3.43;2.83;;;;;;;;;;5138989;27;21012;-71
2023/11/07 11:32:27;;;;;;;2.10;2.00;;;;;;;;;;5139653;27;20517;-72
2023/11/07 11:35:17;;;;;;;2.17;2.07;;;;;;;;;;5132034;27;20457;-71
2023/11/07 11:38:02;;;;;;;3.17;2.87;;;;;;;;;;5139189;27;20453;-71
2023/11/07 11:40:49;;;;;;;2.40;1.93;;;;;;;;;;5141252;27;20437;-69
2023/11/07 11:43:16;;;;;;;4.97;2.30;;;;;;;;;;5133898;27;20449;-71
2023/11/07 11:45:44;;;;;;;2.80;2.43;;;;;;;;;;5138713;27;20441;-72
2023/11/07 11:48:10;;;;;;;2.80;2.60;;;;;;;;;;5134538;27;20520;-72
2023/11/07 11:50:39;;;;;;;4.37;3.10;;;;;;;;;;5139684;27;20491;-72
2023/11/07 11:53:06;;;;;;;4.37;3.20;;;;;;;;;;5136525;27;20453;-75
2023/11/07 11:55:56;;;;;;;3.73;3.43;;;;;;;;;;5135718;27;21269;-73
2023/11/07 11:58:25;;;;;;;3.90;3.60;;;;;;;;;;5137449;27;20445;-75
2023/11/07 12:00:52;;;;;;;4.43;3.77;;;;;;;;;;5142002;27;20473;-72
2023/11/07 12:03:19;;;;;;;3.83;3.47;;;;;;;;;;5142004;27;20448;-75
2023/11/07 12:06:03;;;;;;;5.53;3.47;;;;;;;;;;5140036;27;20540;-75
2023/11/07 12:08:33;;;;;;;3.63;3.20;;;;;;;;;;5140872;27;20476;-74
2023/11/07 12:11:00;;;;;;;3.10;2.80;;;;;;;;;;5140825;27;20444;-72
2023/11/07 12:13:26;;;;;;;2.90;2.50;;;;;;;;;;5138783;27;20469;-73
2023/11/07 12:15:53;;;;;;;2.70;2.53;;;;;;;;;;5137125;27;20903;-65
2023/11/07 12:18:21;;;;;;;2.20;2.10;;;;;;;;;;5135396;27;20433;-68
2023/11/07 12:20:48;;;;;;;2.50;2.40;;;;;;;;;;5131539;27;20450;-67
2023/11/07 12:23:16;;;;;;;2.73;2.63;;;;;;;;;;5134910;27;20929;-67
2023/11/07 12:25:49;;;;;;;3.50;3.30;;;;;;;;;;5120635;27;20453;-67
2023/11/07 12:28:15;;;;;;;3.37;3.07;;;;;;;;;;5132792;27;20456;-67
2023/11/07 12:30:43;;;;;;;3.17;2.87;;;;;;;;;;5125490;27;20482;-68
2023/11/07 12:33:09;;;;;;;3.70;3.40;;;;;;;;;;5132661;27;20437;-68
2023/11/07 12:35:37;;;;;;;4.60;2.80;;;;;;;;;;5132116;27;20450;-67
2023/11/07 12:38:07;;;;;;;3.57;3.10;;;;;;;;;;5125795;27;20449;-68
2023/11/07 12:40:36;;;;;;;3.40;3.10;;;;;;;;;;5127181;27;20823;-68
2023/11/07 12:43:03;;;;;;;3.73;2.90;;;;;;;;;;5131757;27;20469;-68
2023/11/07 12:45:31;;;;;;;3.30;3.10;;;;;;;;;;5130345;27;20449;-69
2023/11/07 12:47:57;;;;;;;3.40;3.10;;;;;;;;;;5137157;27;20545;-68
2023/11/07 12:50:23;;;;;;;3.40;3.10;;;;;;;;;;5118744;27;21529;-68
2023/11/07 12:52:56;;;;;;;3.67;3.47;;;;;;;;;;5119186;27;20599;-67
2023/11/07 12:55:26;;;;;;;3.80;3.50;;;;;;;;;;5129299;27;20454;-67
2023/11/07 12:57:56;;;;;;;4.50;4.10;;;;;;;;;;5133829;27;20537;-67
2023/11/07 13:00:22;;;;;;;3.87;3.57;;;;;;;;;;5123184;27;20462;-69
2023/11/07 13:02:49;;;;;;;7.37;3.87;;;;;;;;;;5138195;27;20502;-68
2023/11/07 13:05:16;;;;;;;5.50;4.07;;;;;;;;;;5135498;27;20461;-67
2023/11/07 13:07:43;;;;;;;4.03;3.63;;;;;;;;;;5121751;27;20450;-67
2023/11/07 13:10:14;;;;;;;4.33;4.00;;;;;;;;;;5136159;27;20464;-67
2023/11/07 13:12:40;;;;;;;4.97;4.40;;;;;;;;;;5126137;27;20439;-67
2023/11/07 13:15:10;;;;;;;4.93;4.43;;;;;;;;;;5123541;27;20458;-70
2023/11/07 13:17:38;;;;;;;4.63;4.30;;;;;;;;;;5129851;27;20517;-69
2023/11/07 13:20:08;;;;;;;7.23;3.90;;;;;;;;;;5131533;27;20799;-67
2023/11/07 13:22:35;;;;;;;4.67;4.27;;;;;;;;;;5135638;27;20891;-66
2023/11/07 13:25:06;;;;;;;4.33;4.03;;;;;;;;;;5131978;27;21019;-66
2023/11/07 13:27:32;;;;;;;4.03;3.63;;;;;;;;;;5124108;27;20449;-66
2023/11/07 13:30:01;;;;;;;5.23;4.77;;;;;;;;;;5128780;27;20468;-68
2023/11/07 13:32:30;;;;;;;5.13;3.83;;;;;;;;;;5133412;27;20439;-68
2023/11/07 13:34:57;;;;;;;3.50;3.30;;;;;;;;;;5126993;27;20526;-67
2023/11/07 13:37:23;;;;;;;3.70;3.40;;;;;;;;;;5134705;27;20454;-67
2023/11/07 13:39:50;;;;;;;4.33;4.03;;;;;;;;;;5138855;27;20480;-65
2023/11/07 13:42:17;;;;;;;4.57;3.67;;;;;;;;;;5129461;28;20576;-66
2023/11/07 13:44:43;;;;;;;4.43;4.13;;;;;;;;;;5135487;28;20437;-66
2023/11/07 13:47:09;;;;;;;3.80;3.50;;;;;;;;;;5124392;28;20980;-66
2023/11/07 13:49:37;;;;;;;4.50;4.10;;;;;;;;;;5135876;28;20449;-66
2023/11/07 13:52:04;;;;;;;4.10;3.80;;;;;;;;;;5123365;28;20449;-68
2023/11/07 13:54:30;;;;;;;4.40;4.00;;;;;;;;;;5125110;28;20446;-65
2023/11/07 13:56:57;;;;;;;3.63;3.43;;;;;;;;;;5132960;28;20445;-67
2023/11/07 13:59:23;;;;;;;4.40;4.00;;;;;;;;;;5126449;27;20453;-65
2023/11/07 14:01:51;;;;;;;3.90;3.50;;;;;;;;;;5121916;28;20506;-65
2023/11/07 14:04:17;;;;;;;7.40;4.27;;;;;;;;;;5130492;28;20476;-67
2023/11/07 14:06:46;;;;;;;3.60;3.40;;;;;;;;;;5135906;28;20457;-67
2023/11/07 14:09:12;;;;;;;4.63;3.90;;;;;;;;;;5124057;28;20530;-67
2023/11/07 14:11:38;;;;;;;3.70;3.50;;;;;;;;;;5129258;28;21140;-65
2023/11/07 14:14:06;;;;;;;3.40;3.20;;;;;;;;;;5132336;28;20941;-66
2023/11/07 14:16:33;;;;;;;3.03;2.83;;;;;;;;;;5126641;28;20485;-66
2023/11/07 14:19:04;;;;;;;3.80;3.40;;;;;;;;;;5133419;28;20450;-69
2023/11/07 14:21:30;;;;;;;3.30;3.00;;;;;;;;;;5134075;28;20437;-67
2023/11/07 14:23:58;;;;;;;7.60;3.60;;;;;;;;;;5124720;28;20481;-66
2023/11/07 14:26:25;;;;;;;3.13;2.93;;;;;;;;;;5127999;28;20448;-65
2023/11/07 14:28:51;;;;;;;3.70;3.40;;;;;;;;;;5126518;28;20446;-65
2023/11/07 14:31:18;;;;;;;3.20;3.00;;;;;;;;;;5130449;27;20557;-67
2023/11/07 14:33:44;;;;;;;3.20;3.00;;;;;;;;;;5136071;27;20465;-67
2023/11/07 14:36:11;;;;;;;3.67;3.37;;;;;;;;;;5132919;27;20531;-68
2023/11/07 14:38:37;;;;;;;4.80;4.50;;;;;;;;;;5130224;27;20480;-68
2023/11/07 14:41:07;;;;;;;4.63;4.03;;;;;;;;;;5127092;27;21101;-66
2023/11/07 14:43:34;;;;;;;4.17;3.90;;;;;;;;;;5141459;27;20568;-66
2023/11/07 14:46:02;;;;;;;3.70;3.50;;;;;;;;;;5134982;27;20514;-66